/* DATA DESCRIPTION:
Citation:	Hass, H Christian; Papenmeier, Svenja (2019): Parametric sediment echo sounder survey during R/V Heincke cruise HE400 in the German Bight with link to raw data files [dataset]. Alfred Wegener Institute - Wadden Sea Station Sylt, PANGAEA, https://doi.org/10.1594/PANGAEA.899708
Abstract:	Parametric sediment echo sounder data were collected during R/V Heincke cruise HE400 with a Innomar SES-2000 medium. Data recording was executed along 120 parallel profiles in North Sea within German EEZ. The survey speed was 5-6 knots. The track distance is 400 m. The primary frequency is 100 kHz and the secondary 6 kHz.
Coverage:	MEDIAN LATITUDE: 54.715229 * MEDIAN LONGITUDE: 7.016890 * SOUTH-BOUND LATITUDE: 54.208913 * WEST-BOUND LONGITUDE: 6.476689 * NORTH-BOUND LATITUDE: 55.081593 * EAST-BOUND LONGITUDE: 8.004449
	DATE/TIME START: 2013-04-30T12:00:00 * DATE/TIME END: 2013-05-22T12:00:00
Event(s):	HE400-track * LATITUDE START: 53.523700 * LONGITUDE START: 8.579100 * LATITUDE END: 53.523700 * LONGITUDE END: 8.579100 * DATE/TIME START: 2013-04-30T00:00:00 * DATE/TIME END: 2013-05-23T00:00:00 * LOCATION: German Bight, North Sea * CAMPAIGN: HE400 * BASIS: Heincke (URI: https://doi.org/10.17815/jlsrf-3-164) * METHOD/DEVICE: Underway cruise track measurements (CT) * COMMENT: Bremerhaven - Bremerhaven
Parameter(s):	DATE/TIME (Date/Time) * GEOCODE * PI: Hass, H Christian (https://orcid.org/0000-0003-2649-6828)
	LATITUDE (Latitude) * GEOCODE * PI: Hass, H Christian (https://orcid.org/0000-0003-2649-6828)
	LONGITUDE (Longitude) * GEOCODE * PI: Hass, H Christian (https://orcid.org/0000-0003-2649-6828)
	Uniform resource locator/link to raw data file (URL raw) * PI: Hass, H Christian (https://orcid.org/0000-0003-2649-6828) * COMMENT: SES files in daily tar-archive
License:	Creative Commons Attribution-NonCommercial 4.0 International (CC-BY-NC-4.0) (URI: https://creativecommons.org/licenses/by-nc/4.0/)
Size:	21 data points
*/
Date/Time	Latitude	Longitude	URL raw
2013-04-30T12:00:00	54.3439369	8.0044489	https://hs.pangaea.de/platforms/vessel/heincke/ses2000/exdata/HE400/20130430_SES2000_SES.tar
2013-05-01T12:00:00	54.5749982	7.0113435	https://hs.pangaea.de/platforms/vessel/heincke/ses2000/exdata/HE400/20130501_SES2000_SES.tar
2013-05-02T12:00:00	54.6376152	7.0601320	https://hs.pangaea.de/platforms/vessel/heincke/ses2000/exdata/HE400/20130502_SES2000_SES.tar
2013-05-03T12:00:00	54.7272148	7.1779141	https://hs.pangaea.de/platforms/vessel/heincke/ses2000/exdata/HE400/20130503_SES2000_SES.tar
2013-05-04T12:00:00	54.7474213	7.1292453	https://hs.pangaea.de/platforms/vessel/heincke/ses2000/exdata/HE400/20130504_SES2000_SES.tar
2013-05-05T12:00:00	54.6803284	6.8603325	https://hs.pangaea.de/platforms/vessel/heincke/ses2000/exdata/HE400/20130505_SES2000_SES.tar
2013-05-06T12:00:00	54.8430328	7.1625304	https://hs.pangaea.de/platforms/vessel/heincke/ses2000/exdata/HE400/20130506_SES2000_SES.tar
2013-05-07T12:00:00	54.7128563	6.7316074	https://hs.pangaea.de/platforms/vessel/heincke/ses2000/exdata/HE400/20130507_SES2000_SES.tar
2013-05-08T12:00:00	54.8908234	7.0952811	https://hs.pangaea.de/platforms/vessel/heincke/ses2000/exdata/HE400/20130508_SES2000_SES.tar
2013-05-09T12:00:00	54.8166034	6.8090220	https://hs.pangaea.de/platforms/vessel/heincke/ses2000/exdata/HE400/20130509_SES2000_SES.tar
2013-05-10T12:00:00	54.7922592	6.6592274	https://hs.pangaea.de/platforms/vessel/heincke/ses2000/exdata/HE400/20130510_SES2000_SES.tar
2013-05-11T12:00:00	54.2996292	7.6309204	https://hs.pangaea.de/platforms/vessel/heincke/ses2000/exdata/HE400/20130511_SES2000_SES.tar
2013-05-12T12:00:00	54.8717575	6.7251558	https://hs.pangaea.de/platforms/vessel/heincke/ses2000/exdata/HE400/20130512_SES2000_SES.tar
2013-05-13T12:00:00	54.8434715	6.5693583	https://hs.pangaea.de/platforms/vessel/heincke/ses2000/exdata/HE400/20130513_SES2000_SES.tar
2013-05-14T12:00:00	54.8632660	6.5188241	https://hs.pangaea.de/platforms/vessel/heincke/ses2000/exdata/HE400/20130514_SES2000_SES.tar
2013-05-15T12:00:00	54.8808556	6.4766893	https://hs.pangaea.de/platforms/vessel/heincke/ses2000/exdata/HE400/20130515_SES2000_SES.tar
2013-05-16T12:00:00	54.2089126	7.7309415	https://hs.pangaea.de/platforms/vessel/heincke/ses2000/exdata/HE400/20130516_SES2000_SES.tar
2013-05-17T12:00:00	54.9658661	6.9718571	https://hs.pangaea.de/platforms/vessel/heincke/ses2000/exdata/HE400/20130517_SES2000_SES.tar
2013-05-20T12:00:00	54.9845543	6.6713467	https://hs.pangaea.de/platforms/vessel/heincke/ses2000/exdata/HE400/20130520_SES2000_SES.tar
2013-05-21T12:00:00	55.0815926	6.8785839	https://hs.pangaea.de/platforms/vessel/heincke/ses2000/exdata/HE400/20130521_SES2000_SES.tar
2013-05-22T12:00:00	54.2528191	7.4799314	https://hs.pangaea.de/platforms/vessel/heincke/ses2000/exdata/HE400/20130522_SES2000_SES.tar
